KPSM/PSM METAR and TAF weather

Enter ICAO airport designator
Station Type Date Time Source
KPSM METAR 2021/06/22 22:56 UTC NOAA

KPSM 222256Z 30008KT 10SM -RA SCT045 OVC090 19/17 A2972 RMK AO2A SLP066 P0001 T01880171


Station Type Date Time Source
KPSM Decoded METAR 2021/06/22 22:56 UTC NOAA

Pease Air Force Base / Portsmouth, NH, United States (KPSM) 43-05N 070-49W
Jun 22, 2021 - 06:56 PM EDT / 2021.06.22 2256 UTC
Wind: from the WNW (300 degrees) at 9 MPH (8 KT):0
Visibility: 10 mile(s):0
Sky conditions: overcast
Weather: light rain
Precipitation last hour: 0.01 inches
Temperature: 65.8 F (18.8 C)
Dew Point: 62.8 F (17.1 C)
Relative Humidity: 89%
Pressure (altimeter): 29.72 in. Hg (1006 hPa)
ob: KPSM 222256Z 30008KT 10SM -RA SCT045 OVC090 19/17 A2972 RMK AO2A SLP066 P0001 T01880171
cycle: 23

Station Type Date Time Source
KPSM TAF 2021/06/22 19:18 UTC NOAA

TAF
AMD KPSM 221915Z 2219/2318 29008KT P6SM BKN035
FM222000 30008KT 6SM -RA BKN030
FM222200 31005KT 5SM -RA BR OVC020
FM230400 30007KT P6SM BKN060

Example: see airport list